Time;durP1;ratioP1;P1;durP2;ratioP2;P2;SDS_P1;SDS_P2;PMS_P1;PMS_P2;Temp;Humidity;BMP_temperature;BMP_pressure;BME280_temperature;BME280_humidity;BME280_pressure;Samples;Min_cycle;Max_cycle;Signal;HPM_P1;HPM_P2
2021/08/31 00:02:21;;;;;;;14.48;7.80;;;16.70;99.90;;;;;;5078755;28;20028;-90
2021/08/31 00:04:46;;;;;;;13.63;7.43;;;16.70;99.90;;;;;;5096163;28;20047;-89
2021/08/31 00:07:12;;;;;;;12.57;7.40;;;16.60;99.90;;;;;;5098964;28;20111;-90
2021/08/31 00:09:38;;;;;;;12.30;7.38;;;16.60;99.90;;;;;;5099059;28;20468;-90
2021/08/31 00:12:04;;;;;;;11.02;6.95;;;16.60;99.90;;;;;;5117468;28;20039;-86
2021/08/31 00:14:29;;;;;;;11.60;6.95;;;16.60;99.90;;;;;;5099122;28;20073;-84
2021/08/31 00:16:55;;;;;;;12.23;7.45;;;16.70;99.90;;;;;;5116828;28;20040;-87
2021/08/31 00:19:21;;;;;;;11.65;7.18;;;16.70;99.90;;;;;;5117693;28;20072;-88
2021/08/31 00:21:47;;;;;;;15.75;7.57;;;16.70;99.90;;;;;;5117302;28;20024;-87
2021/08/31 00:24:13;;;;;;;14.23;6.95;;;16.60;99.90;;;;;;5117456;28;20068;-88
2021/08/31 00:26:38;;;;;;;10.57;6.43;;;16.60;99.90;;;;;;5098533;28;20023;-88
2021/08/31 00:29:04;;;;;;;11.30;6.93;;;16.70;99.90;;;;;;5104153;28;20038;-87
2021/08/31 00:31:30;;;;;;;11.55;6.80;;;16.60;99.90;;;;;;5079346;28;20487;-86
2021/08/31 00:33:55;;;;;;;16.17;8.32;;;16.60;99.90;;;;;;5116952;28;20080;-88
2021/08/31 00:36:21;;;;;;;14.48;7.47;;;16.60;99.90;;;;;;5117324;28;20102;-88
2021/08/31 00:38:46;;;;;;;14.20;7.70;;;16.60;99.90;;;;;;5098578;28;20295;-88
2021/08/31 00:41:12;;;;;;;12.35;7.85;;;16.50;99.90;;;;;;5099384;28;20138;-88
2021/08/31 00:43:46;;;;;;;14.85;7.35;;;16.50;99.90;;;;;;5087047;28;20024;-87
2021/08/31 00:46:16;;;;;;;12.57;7.43;;;16.50;99.90;;;;;;5096486;28;20024;-89
2021/08/31 00:48:42;;;;;;;13.38;7.55;;;16.50;99.90;;;;;;5089122;28;20046;-88
2021/08/31 00:51:09;;;;;;;12.77;7.93;;;16.50;99.90;;;;;;5099190;28;20042;-89
2021/08/31 00:53:36;;;;;;;14.43;7.72;;;16.60;99.90;;;;;;5098682;28;20033;-88
2021/08/31 00:56:03;;;;;;;15.27;8.52;;;16.60;99.90;;;;;;5099036;28;20379;-86
2021/08/31 00:58:32;;;;;;;13.75;7.30;;;16.50;99.90;;;;;;5088680;28;20028;-84
2021/08/31 01:00:58;;;;;;;12.50;7.65;;;16.50;99.90;;;;;;5089637;28;20123;-86
2021/08/31 01:03:25;;;;;;;13.90;7.32;;;16.50;99.90;;;;;;5095361;28;20024;-86
2021/08/31 01:05:50;;;;;;;13.13;6.75;;;16.50;99.90;;;;;;5116073;28;20020;-86
2021/08/31 01:08:16;;;;;;;12.18;6.93;;;16.50;99.90;;;;;;5091113;28;20031;-86
2021/08/31 01:10:42;;;;;;;12.30;7.88;;;16.50;99.90;;;;;;5106976;28;20039;-86
2021/08/31 01:13:08;;;;;;;14.25;7.25;;;16.50;99.90;;;;;;5098571;28;20130;-86
2021/08/31 01:15:33;;;;;;;12.57;7.85;;;16.50;99.90;;;;;;5097885;28;20038;-85
2021/08/31 01:18:20;;;;;;;12.05;7.15;;;16.50;99.90;;;;;;5097819;28;20449;-85
2021/08/31 01:20:47;;;;;;;12.20;7.80;;;16.50;99.90;;;;;;5115971;28;20525;-85
2021/08/31 01:23:15;;;;;;;12.07;7.78;;;16.50;99.90;;;;;;5098064;28;20027;-85
2021/08/31 01:25:42;;;;;;;10.93;7.20;;;16.50;99.90;;;;;;5098054;28;20035;-87
2021/08/31 01:28:13;;;;;;;13.98;8.07;;;16.40;99.90;;;;;;5097883;28;20023;-87
2021/08/31 01:30:39;;;;;;;13.10;7.80;;;16.40;99.90;;;;;;5097731;28;20047;-88
2021/08/31 01:33:04;;;;;;;14.00;8.65;;;16.40;99.90;;;;;;5115908;28;20015;-87
2021/08/31 01:35:30;;;;;;;14.27;8.05;;;16.40;99.90;;;;;;5115750;28;20483;-85
2021/08/31 01:37:55;;;;;;;15.27;8.27;;;16.40;99.90;;;;;;5092320;28;20016;-88
2021/08/31 01:40:21;;;;;;;13.80;7.82;;;16.40;99.90;;;;;;5079801;28;20400;-88
2021/08/31 01:42:47;;;;;;;13.52;7.63;;;16.40;99.90;;;;;;5082413;28;20044;-88
2021/08/31 01:45:12;;;;;;;16.83;7.65;;;16.40;99.90;;;;;;5085270;28;20077;-87
2021/08/31 01:47:38;;;;;;;17.63;8.13;;;16.40;99.90;;;;;;5110133;28;20024;-87
2021/08/31 01:50:04;;;;;;;14.68;7.78;;;16.40;99.90;;;;;;5077484;28;20032;-87
2021/08/31 01:52:30;;;;;;;14.43;7.85;;;16.40;99.90;;;;;;5077094;28;20031;-84
2021/08/31 01:54:55;;;;;;;11.63;7.47;;;16.40;99.90;;;;;;5079010;28;20469;-87
2021/08/31 01:57:21;;;;;;;12.50;7.78;;;16.40;99.90;;;;;;5097528;28;20028;-87
2021/08/31 01:59:46;;;;;;;14.00;7.72;;;16.40;99.90;;;;;;5097203;28;20127;-87
2021/08/31 02:02:12;;;;;;;15.45;7.75;;;16.30;99.90;;;;;;5104515;28;20029;-87
2021/08/31 02:04:38;;;;;;;11.43;6.55;;;16.30;99.90;;;;;;5076292;28;20035;-87
2021/08/31 02:07:03;;;;;;;12.30;7.00;;;16.30;99.90;;;;;;5076535;28;20105;-87
2021/08/31 02:09:29;;;;;;;13.02;7.00;;;16.20;99.90;;;;;;5076952;28;20032;-85
2021/08/31 02:11:54;;;;;;;11.93;6.80;;;16.20;99.90;;;;;;5076715;28;20518;-88
2021/08/31 02:14:20;;;;;;;13.68;7.20;;;16.20;99.90;;;;;;5076820;28;20419;-88
2021/08/31 02:16:46;;;;;;;12.60;7.18;;;16.20;99.90;;;;;;5076269;28;20048;-87
2021/08/31 02:19:11;;;;;;;12.63;6.63;;;16.20;99.90;;;;;;5111590;28;20089;-88
2021/08/31 02:21:37;;;;;;;12.07;7.25;;;16.10;99.90;;;;;;5114736;28;20028;-89
2021/08/31 02:24:03;;;;;;;11.65;6.90;;;16.10;99.90;;;;;;5083278;28;20035;-88
2021/08/31 02:26:31;;;;;;;11.77;6.20;;;16.10;99.90;;;;;;5076759;28;20047;-85
2021/08/31 02:28:56;;;;;;;11.85;6.38;;;16.00;99.90;;;;;;5076646;28;20028;-88
2021/08/31 02:31:22;;;;;;;10.13;6.13;;;16.00;99.90;;;;;;5076630;28;20042;-88
2021/08/31 02:33:48;;;;;;;13.95;6.20;;;16.00;99.90;;;;;;5093720;28;20632;-88
2021/08/31 02:36:13;;;;;;;10.35;6.25;;;15.90;99.90;;;;;;5086402;28;20024;-88
2021/08/31 02:38:39;;;;;;;9.88;5.47;;;15.90;99.90;;;;;;5084253;28;20062;-88
2021/08/31 02:41:04;;;;;;;12.63;6.30;;;15.90;99.90;;;;;;5105686;28;20111;-88
2021/08/31 02:43:30;;;;;;;9.60;5.85;;;15.90;99.90;;;;;;5096200;28;20020;-86
2021/08/31 02:45:56;;;;;;;12.95;6.30;;;15.90;99.90;;;;;;5096526;28;20019;-89
2021/08/31 02:48:21;;;;;;;8.13;5.30;;;15.80;99.90;;;;;;5096097;28;20055;-88
2021/08/31 02:50:47;;;;;;;9.05;5.40;;;15.80;99.90;;;;;;5094617;28;20038;-88
2021/08/31 02:53:12;;;;;;;9.45;6.18;;;15.80;99.90;;;;;;5096438;28;20059;-87
2021/08/31 02:55:38;;;;;;;13.45;5.43;;;15.70;99.90;;;;;;5095704;28;20028;-86
2021/08/31 02:58:04;;;;;;;10.10;5.45;;;15.70;99.90;;;;;;5095705;28;20043;-86
2021/08/31 03:00:31;;;;;;;9.65;5.35;;;15.70;99.90;;;;;;5109043;28;20473;-84
2021/08/31 03:02:57;;;;;;;14.20;5.95;;;15.60;99.90;;;;;;5100918;28;20122;-88
2021/08/31 03:05:23;;;;;;;9.02;5.70;;;15.60;99.90;;;;;;5076136;28;20043;-87
2021/08/31 03:07:49;;;;;;;12.43;5.30;;;15.60;99.90;;;;;;5075707;28;20016;-88
2021/08/31 03:10:14;;;;;;;9.32;6.00;;;15.60;99.90;;;;;;5077370;28;20541;-87
2021/08/31 03:12:40;;;;;;;11.40;6.07;;;15.60;99.90;;;;;;5078200;28;20030;-89
2021/08/31 03:15:06;;;;;;;10.63;5.80;;;15.60;99.90;;;;;;5076266;28;20027;-88
2021/08/31 03:17:32;;;;;;;8.52;5.72;;;15.60;99.90;;;;;;5075622;28;20056;-84
2021/08/31 03:19:57;;;;;;;9.88;6.30;;;15.50;99.90;;;;;;5076039;28;20028;-88
2021/08/31 03:22:23;;;;;;;12.27;5.80;;;15.50;99.90;;;;;;5075929;28;20024;-88
2021/08/31 03:24:49;;;;;;;11.65;5.43;;;15.50;99.90;;;;;;5075082;28;20025;-88
2021/08/31 03:27:14;;;;;;;8.80;5.10;;;15.50;99.90;;;;;;5076157;28;20056;-88
2021/08/31 03:29:40;;;;;;;9.93;5.85;;;15.40;99.90;;;;;;5074743;28;20036;-88
2021/08/31 03:32:06;;;;;;;12.88;6.05;;;15.40;99.90;;;;;;5099469;28;20019;-88
2021/08/31 03:34:31;;;;;;;8.65;5.93;;;15.40;99.90;;;;;;5095170;28;20032;-86
2021/08/31 03:36:57;;;;;;;10.85;6.03;;;15.40;99.90;;;;;;5095623;28;20080;-88
2021/08/31 03:39:23;;;;;;;11.27;5.80;;;15.30;99.90;;;;;;5095884;28;20062;-88
2021/08/31 03:41:48;;;;;;;10.32;6.13;;;15.30;99.90;;;;;;5092693;28;20028;-87
2021/08/31 03:44:14;;;;;;;9.45;5.70;;;15.30;99.90;;;;;;5075610;28;20043;-89
2021/08/31 03:46:40;;;;;;;11.50;6.68;;;15.30;99.90;;;;;;5074974;28;20460;-88
2021/08/31 03:49:05;;;;;;;11.38;6.07;;;15.30;99.90;;;;;;5106205;28;20051;-88
2021/08/31 03:51:31;;;;;;;8.77;5.70;;;15.30;99.90;;;;;;5094694;28;20465;-86
2021/08/31 03:53:57;;;;;;;10.32;5.95;;;15.30;99.90;;;;;;5113423;28;20468;-89
2021/08/31 03:56:22;;;;;;;10.98;5.72;;;15.30;99.90;;;;;;5095841;28;20085;-88
2021/08/31 03:58:48;;;;;;;8.82;5.85;;;15.30;99.90;;;;;;5112735;28;20579;-88
2021/08/31 04:01:14;;;;;;;8.32;5.63;;;15.30;99.90;;;;;;5096195;28;20036;-88
2021/08/31 04:03:39;;;;;;;9.18;5.68;;;15.30;99.80;;;;;;5085327;28;20480;-88
2021/08/31 04:06:05;;;;;;;8.98;6.07;;;15.20;99.80;;;;;;5085630;28;20076;-88
2021/08/31 04:08:31;;;;;;;9.00;6.13;;;15.20;99.90;;;;;;5107765;28;20032;-86
2021/08/31 04:10:56;;;;;;;11.85;6.18;;;15.20;99.90;;;;;;5107597;28;20149;-90
2021/08/31 04:13:22;;;;;;;9.50;6.35;;;15.10;99.90;;;;;;5091402;28;20053;-88
2021/08/31 04:15:48;;;;;;;13.68;6.90;;;15.10;99.90;;;;;;5106359;28;20066;-88
2021/08/31 04:18:15;;;;;;;10.23;6.43;;;15.10;99.90;;;;;;5078220;28;20052;-88
2021/08/31 04:20:40;;;;;;;9.88;6.25;;;15.10;99.90;;;;;;5077831;28;20596;-87
2021/08/31 04:23:06;;;;;;;10.35;6.65;;;15.10;99.90;;;;;;5078867;28;20056;-87
2021/08/31 04:25:32;;;;;;;11.32;6.78;;;15.10;99.90;;;;;;5084604;28;20057;-83
2021/08/31 04:27:58;;;;;;;8.50;6.43;;;15.10;99.90;;;;;;5099212;28;20028;-86
2021/08/31 04:30:23;;;;;;;10.52;5.93;;;15.00;99.90;;;;;;5117113;28;20057;-86
2021/08/31 04:32:49;;;;;;;10.52;6.35;;;15.00;99.90;;;;;;5086056;28;20031;-87
2021/08/31 04:35:15;;;;;;;9.43;6.40;;;15.10;99.80;;;;;;5099707;28;20028;-87
2021/08/31 04:37:40;;;;;;;7.90;6.15;;;15.10;99.70;;;;;;5098467;28;20050;-87
2021/08/31 04:40:06;;;;;;;11.85;6.43;;;15.10;99.80;;;;;;5099132;28;20032;-88
2021/08/31 04:42:32;;;;;;;10.43;6.05;;;15.10;99.70;;;;;;5098765;28;20042;-85
2021/08/31 04:44:57;;;;;;;11.02;6.68;;;15.00;99.70;;;;;;5098950;28;20465;-88
2021/08/31 04:47:23;;;;;;;11.18;5.93;;;15.10;99.60;;;;;;5096504;28;20067;-88
2021/08/31 04:49:49;;;;;;;9.63;6.15;;;15.10;99.60;;;;;;5078211;28;20043;-88
2021/08/31 04:52:15;;;;;;;12.27;7.03;;;15.10;99.50;;;;;;5095912;28;20035;-88
2021/08/31 04:54:40;;;;;;;11.43;6.13;;;15.00;99.60;;;;;;5116269;28;20020;-88
2021/08/31 04:57:06;;;;;;;12.95;6.22;;;15.00;99.50;;;;;;5098325;28;20031;-87
2021/08/31 04:59:32;;;;;;;10.30;6.00;;;14.90;99.60;;;;;;5116013;28;20031;-87
2021/08/31 05:01:57;;;;;;;9.20;6.28;;;14.90;99.70;;;;;;5098607;28;20569;-88
2021/08/31 05:04:28;;;;;;;10.02;6.20;;;14.90;99.60;;;;;;5098496;28;20023;-87
2021/08/31 05:06:54;;;;;;;12.20;6.67;;;14.90;99.50;;;;;;5096384;28;20472;-88
2021/08/31 05:09:20;;;;;;;9.60;6.15;;;14.90;99.60;;;;;;5078479;28;20261;-88
2021/08/31 05:11:45;;;;;;;10.38;6.22;;;14.90;99.60;;;;;;5095295;28;20465;-88
2021/08/31 05:14:11;;;;;;;10.68;6.28;;;14.90;99.80;;;;;;5076927;28;20028;-88
2021/08/31 05:16:37;;;;;;;13.07;7.18;;;14.90;99.80;;;;;;5077458;28;20052;-88
2021/08/31 05:19:03;;;;;;;11.13;6.55;;;14.90;99.80;;;;;;5081562;28;20085;-86
2021/08/31 05:21:28;;;;;;;11.02;6.47;;;14.90;99.80;;;;;;5098224;28;20070;-86
2021/08/31 05:23:56;;;;;;;9.40;6.22;;;14.90;99.70;;;;;;5098001;28;20513;-87
2021/08/31 05:26:21;;;;;;;10.77;6.55;;;14.90;99.60;;;;;;5098155;28;20036;-87
2021/08/31 05:28:47;;;;;;;13.38;7.93;;;15.00;99.60;;;;;;5097996;28;20080;-87
2021/08/31 05:31:12;;;;;;;9.95;6.72;;;15.00;99.70;;;;;;5097941;28;20036;-88
2021/08/31 05:33:38;;;;;;;10.85;7.28;;;15.00;99.60;;;;;;5083353;28;20016;-88
2021/08/31 05:36:04;;;;;;;10.05;6.57;;;15.00;99.60;;;;;;5115591;28;20028;-88
2021/08/31 05:38:29;;;;;;;11.45;6.80;;;15.00;99.50;;;;;;5115767;28;20024;-85
2021/08/31 05:40:55;;;;;;;9.30;6.57;;;15.00;99.60;;;;;;5097251;28;20055;-88
2021/08/31 05:43:21;;;;;;;12.40;7.07;;;15.00;99.70;;;;;;5092949;28;20080;-87
2021/08/31 05:45:46;;;;;;;10.00;6.50;;;15.00;99.70;;;;;;5108733;28;20445;-86
2021/08/31 05:48:12;;;;;;;10.93;6.43;;;15.10;99.80;;;;;;5095794;28;20070;-86
2021/08/31 05:50:38;;;;;;;12.27;7.45;;;15.10;99.80;;;;;;5115117;28;20035;-86
2021/08/31 05:53:04;;;;;;;10.82;6.97;;;15.10;99.90;;;;;;5095752;28;20058;-86
2021/08/31 05:55:29;;;;;;;10.75;6.97;;;15.20;99.90;;;;;;5087636;28;20060;-87
2021/08/31 05:57:55;;;;;;;11.07;7.10;;;15.20;99.90;;;;;;5077275;28;20031;-90
2021/08/31 06:00:20;;;;;;;12.75;6.88;;;15.20;99.70;;;;;;5095797;28;20478;-90
2021/08/31 06:02:46;;;;;;;10.38;7.13;;;15.20;99.50;;;;;;5092258;28;20114;-88
2021/08/31 06:05:12;;;;;;;13.77;6.63;;;15.30;99.30;;;;;;5091377;28;20034;-89
2021/08/31 06:07:42;;;;;;;12.80;6.65;;;15.30;99.20;;;;;;5089865;28;20032;-89
2021/08/31 06:10:08;;;;;;;9.80;6.32;;;15.40;99.00;;;;;;5086801;28;20028;-89
2021/08/31 06:12:34;;;;;;;10.77;7.25;;;15.50;99.10;;;;;;5097647;28;20028;-89
2021/08/31 06:15:00;;;;;;;11.75;7.15;;;15.50;99.00;;;;;;5096650;28;20061;-90
2021/08/31 06:17:27;;;;;;;10.05;6.50;;;15.60;99.30;;;;;;5083682;28;20511;-90
2021/08/31 06:19:53;;;;;;;11.65;6.40;;;15.60;99.00;;;;;;5079218;28;20443;-89
2021/08/31 06:22:18;;;;;;;11.20;7.32;;;15.60;98.80;;;;;;5096726;28;20055;-87
2021/08/31 06:24:46;;;;;;;10.52;6.55;;;15.50;98.80;;;;;;5085164;28;20110;-87
2021/08/31 06:27:12;;;;;;;11.77;6.30;;;15.50;98.80;;;;;;5085677;28;20023;-87
2021/08/31 06:29:37;;;;;;;9.73;6.35;;;15.50;99.10;;;;;;5095674;28;20065;-88
2021/08/31 06:32:04;;;;;;;10.32;6.22;;;15.60;99.10;;;;;;5097219;28;20114;-89
2021/08/31 06:34:29;;;;;;;10.57;6.72;;;15.60;99.00;;;;;;5115528;28;20110;-89
2021/08/31 06:36:55;;;;;;;10.98;6.15;;;15.70;99.00;;;;;;5097076;28;20466;-88
2021/08/31 06:39:21;;;;;;;12.40;6.60;;;15.70;98.90;;;;;;5090604;28;20020;-89
2021/08/31 06:41:46;;;;;;;11.25;6.75;;;15.80;99.10;;;;;;5094276;28;20028;-83
2021/08/31 06:44:12;;;;;;;12.38;6.38;;;15.80;99.00;;;;;;5076740;28;20024;-87
2021/08/31 06:46:38;;;;;;;13.02;6.00;;;15.80;98.80;;;;;;5094484;28;20481;-85
2021/08/31 06:49:03;;;;;;;12.15;5.97;;;15.80;98.50;;;;;;5077075;28;20516;-86
2021/08/31 06:51:29;;;;;;;10.38;6.65;;;15.70;98.40;;;;;;5102393;28;20059;-84
2021/08/31 06:53:55;;;;;;;10.02;6.40;;;15.80;98.30;;;;;;5096443;28;20034;-86
2021/08/31 06:56:21;;;;;;;10.52;5.70;;;15.90;98.10;;;;;;5096901;28;20115;-87
2021/08/31 06:58:50;;;;;;;9.13;5.55;;;15.90;98.00;;;;;;5080284;28;20115;-87
2021/08/31 07:01:15;;;;;;;9.70;6.28;;;16.00;97.90;;;;;;5076528;28;20027;-87
2021/08/31 07:03:41;;;;;;;11.25;6.05;;;16.10;98.20;;;;;;5095183;28;20077;-88
2021/08/31 07:06:07;;;;;;;9.82;5.57;;;16.10;97.70;;;;;;5111984;28;20373;-88
2021/08/31 07:08:32;;;;;;;9.40;5.47;;;16.20;97.60;;;;;;5106464;28;20020;-85
2021/08/31 07:10:58;;;;;;;9.13;5.47;;;16.20;97.40;;;;;;5105645;28;20027;-88
2021/08/31 07:13:24;;;;;;;9.00;5.13;;;16.20;97.30;;;;;;5109277;28;20032;-87
2021/08/31 07:15:49;;;;;;;9.90;5.30;;;16.30;97.40;;;;;;5093413;28;20560;-86
2021/08/31 07:18:15;;;;;;;11.52;5.72;;;16.20;97.20;;;;;;5097148;28;20098;-86
2021/08/31 07:20:41;;;;;;;11.73;5.78;;;16.30;97.30;;;;;;5081205;28;20377;-87
2021/08/31 07:23:07;;;;;;;10.55;5.40;;;16.20;97.30;;;;;;5088479;28;20065;-87
2021/08/31 07:25:33;;;;;;;12.90;6.13;;;16.30;97.80;;;;;;5078719;28;20461;-81
2021/08/31 07:27:59;;;;;;;10.10;5.47;;;16.30;97.50;;;;;;5080536;28;20111;-83
2021/08/31 07:30:24;;;;;;;9.32;5.15;;;16.40;97.20;;;;;;5082910;28;20185;-88
2021/08/31 07:32:50;;;;;;;8.98;5.28;;;16.40;97.10;;;;;;5099989;28;20062;-88
2021/08/31 07:35:15;;;;;;;9.57;5.55;;;16.40;96.90;;;;;;5093474;28;20028;-89
2021/08/31 07:37:42;;;;;;;10.13;5.13;;;16.50;97.00;;;;;;5104634;28;20076;-89
2021/08/31 07:40:08;;;;;;;9.52;5.60;;;16.40;97.10;;;;;;5106242;28;20023;-85
2021/08/31 07:42:34;;;;;;;8.95;5.45;;;16.40;97.10;;;;;;5098273;28;20032;-83
2021/08/31 07:45:07;;;;;;;9.23;5.00;;;16.30;97.20;;;;;;5086825;28;20392;-88
2021/08/31 07:47:33;;;;;;;10.75;5.65;;;16.30;97.10;;;;;;5083088;28;20113;-82
2021/08/31 07:49:59;;;;;;;7.38;4.85;;;16.30;97.20;;;;;;5095955;28;20475;-86
2021/08/31 07:52:25;;;;;;;8.75;5.25;;;16.40;97.20;;;;;;5100983;28;20106;-89
2021/08/31 07:54:51;;;;;;;9.63;5.35;;;16.40;97.10;;;;;;5086986;28;20050;-87
2021/08/31 07:57:17;;;;;;;9.15;5.30;;;16.40;97.00;;;;;;5084809;28;20029;-86
2021/08/31 07:59:43;;;;;;;8.40;5.40;;;16.50;96.90;;;;;;5093088;28;20125;-87
2021/08/31 08:02:08;;;;;;;8.00;5.30;;;16.50;96.90;;;;;;5088849;28;20111;-89
2021/08/31 08:04:34;;;;;;;7.78;5.15;;;16.60;96.70;;;;;;5085389;28;20131;-89
2021/08/31 08:06:59;;;;;;;11.43;5.15;;;16.70;96.90;;;;;;5098871;28;20093;-88
2021/08/31 08:09:25;;;;;;;9.35;5.10;;;16.90;96.40;;;;;;5083191;28;20027;-88
2021/08/31 08:11:51;;;;;;;9.25;4.82;;;17.00;96.10;;;;;;5102268;28;20024;-88
2021/08/31 08:14:16;;;;;;;9.48;5.25;;;17.10;96.10;;;;;;5086091;28;20028;-88
2021/08/31 08:16:42;;;;;;;9.55;4.75;;;17.20;96.00;;;;;;5084447;28;20423;-85
2021/08/31 08:19:08;;;;;;;6.93;4.93;;;17.30;96.30;;;;;;5085036;28;20021;-86
2021/08/31 08:21:35;;;;;;;10.02;5.28;;;17.40;96.10;;;;;;5083382;28;20025;-87
2021/08/31 08:24:01;;;;;;;9.10;5.57;;;17.50;96.30;;;;;;5088807;28;20054;-89
2021/08/31 08:26:27;;;;;;;7.63;4.80;;;17.50;96.00;;;;;;5093383;28;20108;-88
2021/08/31 08:28:52;;;;;;;9.07;5.28;;;17.50;95.60;;;;;;5080942;28;20051;-89
2021/08/31 08:31:18;;;;;;;7.18;4.70;;;17.50;95.40;;;;;;5080415;28;20071;-88
2021/08/31 08:33:43;;;;;;;9.40;4.88;;;17.50;95.20;;;;;;5089280;28;20430;-88
2021/08/31 08:36:09;;;;;;;8.02;5.25;;;17.60;94.80;;;;;;5091545;28;20096;-88
2021/08/31 08:38:35;;;;;;;7.32;4.85;;;17.60;94.40;;;;;;5084104;28;20101;-88
2021/08/31 08:41:06;;;;;;;8.50;4.72;;;17.60;94.20;;;;;;5082979;28;20036;-89
2021/08/31 08:43:33;;;;;;;7.68;4.75;;;17.70;94.20;;;;;;5078488;28;20036;-89
2021/08/31 08:46:02;;;;;;;7.82;5.28;;;17.70;94.10;;;;;;5084597;28;20040;-91
2021/08/31 08:48:29;;;;;;;7.68;4.90;;;17.80;94.00;;;;;;5079215;28;20044;-91
2021/08/31 08:50:57;;;;;;;8.68;5.70;;;17.80;93.90;;;;;;5088824;28;20484;-90
2021/08/31 08:53:25;;;;;;;8.95;4.88;;;17.90;94.10;;;;;;5093807;28;20103;-89
2021/08/31 08:55:51;;;;;;;7.18;4.90;;;17.90;93.90;;;;;;5090892;28;20134;-91
2021/08/31 08:58:17;;;;;;;9.45;4.78;;;17.90;93.90;;;;;;5086061;28;20028;-88
2021/08/31 09:01:04;;;;;;;8.80;5.35;;;18.00;94.00;;;;;;5084301;28;20036;-90
2021/08/31 09:03:34;;;;;;;8.13;4.82;;;17.90;93.90;;;;;;5079137;28;20021;-90
2021/08/31 09:06:07;;;;;;;7.28;4.45;;;18.00;94.00;;;;;;5078711;28;20024;-90
2021/08/31 09:08:34;;;;;;;6.65;4.40;;;18.00;94.10;;;;;;5083174;28;20036;-89
2021/08/31 09:11:26;;;;;;;8.38;4.50;;;18.00;93.70;;;;;;5081958;28;20033;-86
2021/08/31 09:14:12;;;;;;;7.28;4.32;;;18.10;93.10;;;;;;5090943;28;20171;-84
2021/08/31 09:16:38;;;;;;;9.18;4.65;;;18.10;93.10;;;;;;5082800;28;20056;-84
2021/08/31 09:19:04;;;;;;;9.15;4.47;;;18.20;93.20;;;;;;5081698;28;20021;-84
2021/08/31 09:21:30;;;;;;;7.45;4.00;;;18.30;93.00;;;;;;5091440;28;20419;-84
2021/08/31 09:23:57;;;;;;;7.72;4.32;;;18.30;92.40;;;;;;5076139;28;20025;-89
2021/08/31 09:26:42;;;;;;;6.72;4.05;;;18.30;92.30;;;;;;5074039;28;20374;-92
2021/08/31 09:29:14;;;;;;;7.10;3.75;;;18.40;92.60;;;;;;5084251;28;20041;-88
2021/08/31 09:31:47;;;;;;;7.43;4.22;;;18.50;92.40;;;;;;5092746;28;20036;-84
2021/08/31 09:34:32;;;;;;;8.48;4.70;;;18.50;91.90;;;;;;5091648;28;20077;-81
2021/08/31 09:37:27;;;;;;;7.30;4.00;;;18.50;91.00;;;;;;5083779;28;20461;-82
2021/08/31 09:40:01;;;;;;;5.82;4.25;;;18.50;91.30;;;;;;5081399;28;20127;-83
2021/08/31 09:42:26;;;;;;;7.47;3.83;;;18.60;91.30;;;;;;5077576;28;20025;-82
2021/08/31 09:45:00;;;;;;;5.05;3.65;;;18.60;91.40;;;;;;5071690;28;20040;-84
2021/08/31 09:47:36;;;;;;;7.22;3.85;;;18.70;91.60;;;;;;5075576;28;20074;-82
2021/08/31 09:50:06;;;;;;;6.53;4.07;;;18.70;91.60;;;;;;5075905;28;20059;-85
2021/08/31 09:52:32;;;;;;;6.93;4.05;;;18.70;91.40;;;;;;5081137;28;20024;-85
2021/08/31 09:54:58;;;;;;;6.05;4.40;;;18.70;91.30;;;;;;5082193;28;20040;-85
2021/08/31 09:57:29;;;;;;;6.80;4.22;;;18.80;91.50;;;;;;5084259;28;20108;-85
2021/08/31 09:59:56;;;;;;;6.55;3.97;;;18.80;91.20;;;;;;5088434;28;20060;-86
2021/08/31 10:02:23;;;;;;;8.40;4.32;;;18.80;91.30;;;;;;5090799;28;20038;-84
2021/08/31 10:04:53;;;;;;;7.85;4.57;;;18.90;91.20;;;;;;5083041;28;20036;-79
2021/08/31 10:07:20;;;;;;;7.80;4.53;;;18.90;91.20;;;;;;5072252;28;20027;-82
2021/08/31 10:09:46;;;;;;;8.80;4.15;;;18.90;91.60;;;;;;5072188;28;20063;-80
2021/08/31 10:12:16;;;;;;;5.60;3.97;;;18.90;91.60;;;;;;5080581;28;20438;-80
2021/08/31 10:14:44;;;;;;;5.90;3.97;;;18.80;91.40;;;;;;5092193;28;20071;-80
2021/08/31 10:17:14;;;;;;;6.25;3.90;;;18.80;91.50;;;;;;5094894;28;20039;-83
2021/08/31 10:19:43;;;;;;;5.63;3.67;;;18.80;91.50;;;;;;5105418;28;20372;-81
2021/08/31 10:22:14;;;;;;;5.80;3.85;;;18.90;91.60;;;;;;5086478;28;20026;-81
2021/08/31 10:24:45;;;;;;;8.05;3.42;;;19.00;91.10;;;;;;5087735;28;20111;-82
2021/08/31 10:27:31;;;;;;;5.72;3.95;;;19.10;91.00;;;;;;5087851;28;20036;-83
2021/08/31 10:30:19;;;;;;;6.05;4.10;;;19.20;91.50;;;;;;5080157;28;20050;-88
2021/08/31 10:32:46;;;;;;;5.95;3.85;;;19.30;91.20;;;;;;5103876;28;20035;-86
2021/08/31 10:35:39;;;;;;;6.55;4.00;;;19.30;90.90;;;;;;5091520;28;20109;-88
2021/08/31 10:38:06;;;;;;;7.63;3.88;;;19.40;91.30;;;;;;5086018;28;20088;-84
2021/08/31 10:40:33;;;;;;;6.88;3.95;;;19.50;90.90;;;;;;5089623;28;20024;-86
2021/08/31 10:43:00;;;;;;;7.65;3.75;;;19.60;90.80;;;;;;5084318;28;20031;-84
2021/08/31 10:45:28;;;;;;;5.68;3.92;;;19.60;91.20;;;;;;5087078;28;20035;-85
2021/08/31 10:47:53;;;;;;;6.00;3.95;;;19.70;90.80;;;;;;5092212;28;20023;-81
2021/08/31 10:50:22;;;;;;;9.20;3.88;;;19.70;90.40;;;;;;5081281;28;20036;-81
2021/08/31 10:52:50;;;;;;;5.97;4.13;;;19.80;90.30;;;;;;5080782;28;20022;-81
2021/08/31 10:55:18;;;;;;;6.32;3.78;;;19.80;90.40;;;;;;5088675;28;20123;-85
2021/08/31 10:57:46;;;;;;;6.57;3.85;;;19.80;90.20;;;;;;5093831;28;20101;-85
2021/08/31 11:00:14;;;;;;;5.93;3.65;;;19.80;90.60;;;;;;5078563;28;20123;-86
2021/08/31 11:02:46;;;;;;;6.20;3.70;;;19.70;89.90;;;;;;5082416;28;20046;-86
2021/08/31 11:05:18;;;;;;;5.93;3.15;;;19.80;89.30;;;;;;5081069;28;20024;-84
2021/08/31 11:07:57;;;;;;;6.20;3.65;;;19.90;88.80;;;;;;5089870;28;20107;-85
2021/08/31 11:10:25;;;;;;;5.03;3.45;;;20.10;89.40;;;;;;5081989;28;20035;-85
2021/08/31 11:12:52;;;;;;;5.32;3.63;;;20.20;87.90;;;;;;5104798;28;20020;-87
2021/08/31 11:15:26;;;;;;;5.47;3.38;;;20.20;87.60;;;;;;5096660;28;20034;-88
2021/08/31 11:17:52;;;;;;;5.93;3.63;;;20.20;87.80;;;;;;5086741;28;20097;-85
2021/08/31 11:20:31;;;;;;;4.93;3.60;;;20.20;87.20;;;;;;5108957;28;20547;-86
2021/08/31 11:23:04;;;;;;;5.28;3.35;;;20.20;86.40;;;;;;5093170;28;20028;-86
2021/08/31 11:25:37;;;;;;;8.73;3.63;;;20.30;85.90;;;;;;5097195;28;20087;-86
2021/08/31 11:28:05;;;;;;;6.30;3.28;;;20.30;85.90;;;;;;5089488;28;20522;-85
2021/08/31 11:30:53;;;;;;;6.03;3.50;;;20.30;85.40;;;;;;5096983;28;20051;-87
2021/08/31 11:33:20;;;;;;;5.25;3.60;;;20.30;84.50;;;;;;5098409;28;20031;-88
2021/08/31 11:35:54;;;;;;;6.03;3.45;;;20.20;84.90;;;;;;5094140;28;20051;-86
2021/08/31 11:38:35;;;;;;;5.72;3.45;;;20.20;85.30;;;;;;5086263;28;20032;-86
2021/08/31 11:41:11;;;;;;;;;;;20.20;85.50;;;;;;5080175;28;20035;-84
2021/08/31 11:43:37;;;;;;;5.43;3.10;;;20.30;86.50;;;;;;5108443;28;19908;-86
2021/08/31 11:46:03;;;;;;;6.07;3.50;;;20.20;84.50;;;;;;5087291;28;20027;-84
2021/08/31 11:48:29;;;;;;;7.88;3.17;;;20.30;83.70;;;;;;5116024;28;20036;-85
2021/08/31 11:50:58;;;;;;;3.92;2.90;;;20.20;83.30;;;;;;5086159;28;20040;-85
2021/08/31 11:53:24;;;;;;;5.93;3.50;;;20.20;84.60;;;;;;5090793;28;20020;-85
2021/08/31 11:55:59;;;;;;;3.70;3.17;;;20.20;85.10;;;;;;5078794;28;20028;-86
2021/08/31 11:58:26;;;;;;;4.47;3.17;;;20.10;85.30;;;;;;5092254;28;20040;-84
2021/08/31 12:00:56;;;;;;;6.78;3.28;;;20.10;85.00;;;;;;5097484;28;20055;-82
2021/08/31 12:03:27;;;;;;;5.50;3.17;;;20.10;85.30;;;;;;5091533;28;20024;-83
2021/08/31 12:05:58;;;;;;;5.00;3.20;;;20.20;85.50;;;;;;5084955;28;20055;-83
2021/08/31 12:08:28;;;;;;;5.32;3.55;;;20.30;85.30;;;;;;5091505;28;20420;-83
2021/08/31 12:10:54;;;;;;;4.45;2.85;;;20.50;85.30;;;;;;5087377;28;20053;-84
2021/08/31 12:13:22;;;;;;;6.22;3.20;;;20.70;81.40;;;;;;5108432;28;20065;-84
2021/08/31 12:15:50;;;;;;;4.88;3.15;;;21.00;80.70;;;;;;5089673;28;20028;-83
2021/08/31 12:18:18;;;;;;;4.00;2.75;;;21.20;80.10;;;;;;5083398;28;20058;-83
2021/08/31 12:20:43;;;;;;;5.05;2.97;;;21.30;78.90;;;;;;5105388;28;20023;-82
2021/08/31 12:23:10;;;;;;;4.43;2.95;;;21.40;78.40;;;;;;5103758;28;20037;-84
2021/08/31 12:25:47;;;;;;;5.45;3.10;;;21.40;77.80;;;;;;5107074;28;20016;-85
2021/08/31 12:28:14;;;;;;;4.63;2.50;;;21.40;78.00;;;;;;5081120;28;20020;-84
2021/08/31 12:30:41;;;;;;;5.53;2.90;;;21.40;79.00;;;;;;5087772;28;20036;-84
2021/08/31 12:33:08;;;;;;;4.65;3.00;;;21.30;77.40;;;;;;5088154;28;20027;-86
2021/08/31 12:35:44;;;;;;;4.05;2.92;;;21.20;77.10;;;;;;5089950;28;20027;-87
2021/08/31 12:38:17;;;;;;;3.60;2.88;;;21.10;78.10;;;;;;5083145;28;20024;-85
2021/08/31 12:40:55;;;;;;;3.53;2.50;;;21.00;78.00;;;;;;5087683;28;20031;-83
2021/08/31 12:43:24;;;;;;;4.43;2.72;;;20.90;80.00;;;;;;5084315;28;20076;-85
2021/08/31 12:45:52;;;;;;;4.53;3.00;;;20.90;79.90;;;;;;5086016;28;20034;-87